Terminal Aerodrome Forecast
Issued by NWS Jackson, MS

Home | Current Version | Previous Version | Text Only | Print | Product List | Glossary On
Versions: 1 2 3 4 5 6 7 8 9 10 11 12 13 14 15 16 17 18 19 20 21 22 23
000
FTUS44 KJAN 241741
TAFJAN
TAF
KJAN 241741Z 2418/2518 17005KT 3SM -TSRA BR BKN030CB OVC070
     FM241830 23007KT P6SM VCTS SCT015 BKN030CB
     FM250000 22004KT P6SM BKN100
     FM250600 20003KT P6SM BKN012
     FM251500 25005KT P6SM SCT015 BKN025=

USA.gov is the U.S. government's official web portal to all federal, state and local government web resources and services.